sensor_id;sensor_type;location;lat;lon;timestamp;pressure;altitude;pressure_sealevel;temperature;humidity
62544;BME280;48597;49.030;1.822;2022-10-16T00:00:35;100386.78;;;21.77;50.53
62544;BME280;48597;49.030;1.822;2022-10-16T00:03:01;100396.66;;;21.76;50.54
62544;BME280;48597;49.030;1.822;2022-10-16T00:05:27;100405.38;;;21.78;50.60
62544;BME280;48597;49.030;1.822;2022-10-16T00:07:53;100409.09;;;21.77;50.52
62544;BME280;48597;49.030;1.822;2022-10-16T00:10:18;100419.59;;;21.79;50.46
62544;BME280;48597;49.030;1.822;2022-10-16T00:12:44;100421.47;;;21.78;50.61
62544;BME280;48597;49.030;1.822;2022-10-16T00:15:09;100409.91;;;21.78;50.55
62544;BME280;48597;49.030;1.822;2022-10-16T00:17:35;100402.72;;;21.78;50.61
62544;BME280;48597;49.030;1.822;2022-10-16T00:20:00;100408.91;;;21.79;50.61
62544;BME280;48597;49.030;1.822;2022-10-16T00:22:25;100409.91;;;21.78;50.58
62544;BME280;48597;49.030;1.822;2022-10-16T00:24:51;100417.75;;;21.79;50.52
62544;BME280;48597;49.030;1.822;2022-10-16T00:27:16;100411.38;;;21.80;50.39
62544;BME280;48597;49.030;1.822;2022-10-16T00:29:42;100408.06;;;21.78;50.59
62544;BME280;48597;49.030;1.822;2022-10-16T00:32:08;100407.03;;;21.79;50.58
62544;BME280;48597;49.030;1.822;2022-10-16T00:34:34;100425.59;;;21.81;50.40
62544;BME280;48597;49.030;1.822;2022-10-16T00:36:59;100427.47;;;21.80;50.60
62544;BME280;48597;49.030;1.822;2022-10-16T00:39:25;100427.47;;;21.80;50.50
62544;BME280;48597;49.030;1.822;2022-10-16T00:41:51;100422.94;;;21.81;50.44
62544;BME280;48597;49.030;1.822;2022-10-16T00:47:09;100423.13;;;21.79;50.58
62544;BME280;48597;49.030;1.822;2022-10-16T00:49:36;100428.28;;;21.81;50.34
62544;BME280;48597;49.030;1.822;2022-10-16T00:52:01;100433.66;;;21.81;50.51
62544;BME280;48597;49.030;1.822;2022-10-16T00:54:29;100433.50;;;21.83;50.46
62544;BME280;48597;49.030;1.822;2022-10-16T00:56:58;100433.66;;;21.81;50.30
62544;BME280;48597;49.030;1.822;2022-10-16T00:59:31;100419.41;;;21.80;50.46
62544;BME280;48597;49.030;1.822;2022-10-16T01:01:57;100418.44;;;21.81;50.40
62544;BME280;48597;49.030;1.822;2022-10-16T01:04:24;100408.72;;;21.80;50.44
62544;BME280;48597;49.030;1.822;2022-10-16T01:09:47;100429.78;;;21.84;50.30
62544;BME280;48597;49.030;1.822;2022-10-16T01:12:26;100431.66;;;21.83;50.46
62544;BME280;48597;49.030;1.822;2022-10-16T01:14:59;100432.47;;;21.84;50.45
62544;BME280;48597;49.030;1.822;2022-10-16T01:17:35;100427.81;;;21.86;50.41
62544;BME280;48597;49.030;1.822;2022-10-16T01:20:16;100423.09;;;21.88;50.17
62544;BME280;48597;49.030;1.822;2022-10-16T01:28:09;100436.44;;;21.96;50.08
62544;BME280;48597;49.030;1.822;2022-10-16T01:30:40;100433.78;;;21.96;49.98
62544;BME280;48597;49.030;1.822;2022-10-16T01:33:13;100436.94;;;21.99;50.01
62544;BME280;48597;49.030;1.822;2022-10-16T01:35:48;100435.91;;;22.00;49.94
62544;BME280;48597;49.030;1.822;2022-10-16T01:38:22;100434.75;;;22.03;49.87
62544;BME280;48597;49.030;1.822;2022-10-16T01:40:54;100431.06;;;22.04;49.91
62544;BME280;48597;49.030;1.822;2022-10-16T01:43:25;100445.13;;;22.06;49.79
62544;BME280;48597;49.030;1.822;2022-10-16T01:45:54;100445.97;;;22.06;49.82
62544;BME280;48597;49.030;1.822;2022-10-16T01:48:21;100434.06;;;22.09;49.66
62544;BME280;48597;49.030;1.822;2022-10-16T01:51:00;100432.22;;;22.10;49.73
62544;BME280;48597;49.030;1.822;2022-10-16T01:53:28;100425.00;;;22.10;49.72
62544;BME280;48597;49.030;1.822;2022-10-16T01:55:55;100423.16;;;22.11;49.58
62544;BME280;48597;49.030;1.822;2022-10-16T01:58:21;100432.75;;;22.13;49.50
62544;BME280;48597;49.030;1.822;2022-10-16T02:00:48;100429.88;;;22.15;49.62
62544;BME280;48597;49.030;1.822;2022-10-16T02:03:18;100428.84;;;22.16;49.41
62544;BME280;48597;49.030;1.822;2022-10-16T02:05:46;100432.38;;;22.16;49.62
62544;BME280;48597;49.030;1.822;2022-10-16T02:08:13;100429.88;;;22.15;49.47
62544;BME280;48597;49.030;1.822;2022-10-16T02:10:39;100442.25;;;22.16;49.58
62544;BME280;48597;49.030;1.822;2022-10-16T02:15:41;100436.38;;;22.12;49.52
62544;BME280;48597;49.030;1.822;2022-10-16T02:18:07;100447.09;;;22.12;49.71
62544;BME280;48597;49.030;1.822;2022-10-16T02:20:42;100433.69;;;22.12;49.57
62544;BME280;48597;49.030;1.822;2022-10-16T02:23:12;100442.75;;;22.11;49.52
62544;BME280;48597;49.030;1.822;2022-10-16T02:25:43;100433.25;;;22.09;49.74
62544;BME280;48597;49.030;1.822;2022-10-16T02:28:19;100438.59;;;22.09;49.78
62544;BME280;48597;49.030;1.822;2022-10-16T02:30:59;100444.78;;;22.09;49.55
62544;BME280;48597;49.030;1.822;2022-10-16T02:33:25;100460.03;;;22.09;49.74
62544;BME280;48597;49.030;1.822;2022-10-16T02:35:53;100457.50;;;22.07;49.54
62544;BME280;48597;49.030;1.822;2022-10-16T02:38:20;100455.84;;;22.06;49.70
62544;BME280;48597;49.030;1.822;2022-10-16T02:40:46;100456.69;;;22.06;49.72
62544;BME280;48597;49.030;1.822;2022-10-16T02:43:12;100459.53;;;22.05;49.77
62544;BME280;48597;49.030;1.822;2022-10-16T02:45:38;100466.56;;;22.06;49.80
62544;BME280;48597;49.030;1.822;2022-10-16T02:48:03;100460.53;;;22.04;49.71
62544;BME280;48597;49.030;1.822;2022-10-16T02:50:29;100456.00;;;22.04;49.80
62544;BME280;48597;49.030;1.822;2022-10-16T02:52:54;100461.38;;;22.04;49.86
62544;BME280;48597;49.030;1.822;2022-10-16T02:55:20;100458.69;;;22.04;49.62
62544;BME280;48597;49.030;1.822;2022-10-16T02:57:45;100465.06;;;22.03;49.64
62544;BME280;48597;49.030;1.822;2022-10-16T03:00:13;100477.63;;;22.03;49.75
62544;BME280;48597;49.030;1.822;2022-10-16T03:02:40;100476.78;;;22.02;49.71
62544;BME280;48597;49.030;1.822;2022-10-16T03:05:06;100475.13;;;22.01;49.68
62544;BME280;48597;49.030;1.822;2022-10-16T03:07:33;100467.91;;;22.02;49.86
62544;BME280;48597;49.030;1.822;2022-10-16T03:09:58;100481.31;;;22.02;49.78
62544;BME280;48597;49.030;1.822;2022-10-16T03:12:26;100459.06;;;22.01;49.78
62544;BME280;48597;49.030;1.822;2022-10-16T03:14:52;100450.19;;;22.01;49.86
62544;BME280;48597;49.030;1.822;2022-10-16T03:17:17;100462.72;;;22.00;49.83
62544;BME280;48597;49.030;1.822;2022-10-16T03:19:42;100462.72;;;22.00;49.89
62544;BME280;48597;49.030;1.822;2022-10-16T03:22:08;100468.06;;;22.00;49.86
62544;BME280;48597;49.030;1.822;2022-10-16T03:24:33;100482.50;;;21.99;49.80
62544;BME280;48597;49.030;1.822;2022-10-16T03:26:59;100483.31;;;22.00;49.77
62544;BME280;48597;49.030;1.822;2022-10-16T03:29:24;100480.63;;;22.00;49.77
62544;BME280;48597;49.030;1.822;2022-10-16T03:31:51;100481.66;;;21.99;49.73
62544;BME280;48597;49.030;1.822;2022-10-16T03:34:18;100487.00;;;21.99;49.85
62544;BME280;48597;49.030;1.822;2022-10-16T03:36:43;100483.31;;;22.00;49.84
62544;BME280;48597;49.030;1.822;2022-10-16T03:39:08;100470.94;;;21.99;49.77
62544;BME280;48597;49.030;1.822;2022-10-16T03:41:34;100481.66;;;21.99;49.79
62544;BME280;48597;49.030;1.822;2022-10-16T03:43:59;100483.50;;;21.98;49.75
62544;BME280;48597;49.030;1.822;2022-10-16T03:46:24;100481.00;;;21.97;49.84
62544;BME280;48597;49.030;1.822;2022-10-16T03:48:50;100486.19;;;21.98;49.87
62544;BME280;48597;49.030;1.822;2022-10-16T03:51:15;100494.22;;;21.98;49.78
62544;BME280;48597;49.030;1.822;2022-10-16T03:53:41;100491.53;;;21.98;49.83
62544;BME280;48597;49.030;1.822;2022-10-16T03:56:07;100499.75;;;21.97;49.89
62544;BME280;48597;49.030;1.822;2022-10-16T03:58:33;100501.44;;;21.98;49.88
62544;BME280;48597;49.030;1.822;2022-10-16T04:00:58;100498.75;;;21.98;49.76
62544;BME280;48597;49.030;1.822;2022-10-16T04:03:23;100488.19;;;21.96;49.77
62544;BME280;48597;49.030;1.822;2022-10-16T04:05:49;100498.75;;;21.98;49.81
62544;BME280;48597;49.030;1.822;2022-10-16T04:08:15;100504.09;;;21.98;49.88
62544;BME280;48597;49.030;1.822;2022-10-16T04:10:42;100503.44;;;21.96;49.85
62544;BME280;48597;49.030;1.822;2022-10-16T04:13:08;100506.78;;;21.98;49.77
62544;BME280;48597;49.030;1.822;2022-10-16T04:15:33;100496.91;;;21.98;49.74
62544;BME280;48597;49.030;1.822;2022-10-16T04:17:59;100505.94;;;21.97;49.81
62544;BME280;48597;49.030;1.822;2022-10-16T04:20:24;100499.75;;;21.97;49.69
62544;BME280;48597;49.030;1.822;2022-10-16T04:22:50;100508.44;;;21.99;49.71
62544;BME280;48597;49.030;1.822;2022-10-16T04:25:15;100513.81;;;21.99;49.71
62544;BME280;48597;49.030;1.822;2022-10-16T04:27:41;100514.81;;;21.98;49.75
62544;BME280;48597;49.030;1.822;2022-10-16T04:30:06;100517.50;;;21.98;49.81
62544;BME280;48597;49.030;1.822;2022-10-16T04:32:33;100522.88;;;21.98;49.79
62544;BME280;48597;49.030;1.822;2022-10-16T04:34:58;100526.56;;;21.97;49.72
62544;BME280;48597;49.030;1.822;2022-10-16T04:37:27;100531.91;;;21.97;49.70
62544;BME280;48597;49.030;1.822;2022-10-16T04:39:53;100539.94;;;21.97;49.85
62544;BME280;48597;49.030;1.822;2022-10-16T04:42:19;100541.63;;;21.98;49.69
62544;BME280;48597;49.030;1.822;2022-10-16T04:44:44;100541.63;;;21.98;49.71
62544;BME280;48597;49.030;1.822;2022-10-16T04:47:10;100546.97;;;21.98;49.83
62544;BME280;48597;49.030;1.822;2022-10-16T04:49:35;100538.94;;;21.98;49.96
62544;BME280;48597;49.030;1.822;2022-10-16T04:52:01;100544.28;;;21.98;49.74
62544;BME280;48597;49.030;1.822;2022-10-16T04:54:26;100551.31;;;21.99;49.61
62544;BME280;48597;49.030;1.822;2022-10-16T04:56:51;100555.84;;;21.98;49.78
62544;BME280;48597;49.030;1.822;2022-10-16T04:59:20;100554.81;;;21.99;49.76
62544;BME280;48597;49.030;1.822;2022-10-16T05:01:45;100550.50;;;21.98;49.80
62544;BME280;48597;49.030;1.822;2022-10-16T05:04:11;100554.19;;;21.97;49.66
62544;BME280;48597;49.030;1.822;2022-10-16T05:06:37;100557.69;;;21.98;49.78
62544;BME280;48597;49.030;1.822;2022-10-16T05:09:04;100571.09;;;21.98;49.76
62544;BME280;48597;49.030;1.822;2022-10-16T05:11:30;100577.47;;;21.97;49.81
62544;BME280;48597;49.030;1.822;2022-10-16T05:13:55;100584.63;;;21.96;49.78
62544;BME280;48597;49.030;1.822;2022-10-16T05:16:22;100582.81;;;21.97;49.82
62544;BME280;48597;49.030;1.822;2022-10-16T05:18:48;100590.00;;;21.96;49.76
62544;BME280;48597;49.030;1.822;2022-10-16T05:21:14;100594.53;;;21.96;49.80
62544;BME280;48597;49.030;1.822;2022-10-16T05:23:39;100596.53;;;21.94;49.66
62544;BME280;48597;49.030;1.822;2022-10-16T05:26:04;100586.66;;;21.94;49.91
62544;BME280;48597;49.030;1.822;2022-10-16T05:28:30;100585.84;;;21.94;49.64
62544;BME280;48597;49.030;1.822;2022-10-16T05:30:57;100582.47;;;21.92;49.68
62544;BME280;48597;49.030;1.822;2022-10-16T05:33:24;100589.50;;;21.93;49.77
62544;BME280;48597;49.030;1.822;2022-10-16T05:35:50;100593.19;;;21.92;49.65
62544;BME280;48597;49.030;1.822;2022-10-16T05:38:16;100593.19;;;21.92;49.72
62544;BME280;48597;49.030;1.822;2022-10-16T05:40:42;100600.38;;;21.91;49.80
62544;BME280;48597;49.030;1.822;2022-10-16T05:43:07;100594.19;;;21.91;49.69
62544;BME280;48597;49.030;1.822;2022-10-16T05:45:33;100595.22;;;21.90;49.61
62544;BME280;48597;49.030;1.822;2022-10-16T05:47:59;100597.06;;;21.89;49.65
62544;BME280;48597;49.030;1.822;2022-10-16T05:50:25;100597.06;;;21.89;49.61
62544;BME280;48597;49.030;1.822;2022-10-16T05:52:50;100589.16;;;21.88;49.53
62544;BME280;48597;49.030;1.822;2022-10-16T05:55:16;100592.88;;;21.87;49.72
62544;BME280;48597;49.030;1.822;2022-10-16T05:57:41;100592.88;;;21.87;49.60
62544;BME280;48597;49.030;1.822;2022-10-16T06:00:07;100585.84;;;21.86;49.76
62544;BME280;48597;49.030;1.822;2022-10-16T06:02:32;100580.47;;;21.86;49.64
62544;BME280;48597;49.030;1.822;2022-10-16T06:04:58;100600.22;;;21.85;49.61
62544;BME280;48597;49.030;1.822;2022-10-16T06:07:23;100600.22;;;21.85;49.76
62544;BME280;48597;49.030;1.822;2022-10-16T06:09:52;100591.53;;;21.83;49.70
62544;BME280;48597;49.030;1.822;2022-10-16T06:12:19;100598.88;;;21.80;49.47
62544;BME280;48597;49.030;1.822;2022-10-16T06:14:45;100598.88;;;21.80;49.61
62544;BME280;48597;49.030;1.822;2022-10-16T06:17:14;100598.72;;;21.82;49.79
62544;BME280;48597;49.030;1.822;2022-10-16T06:19:40;100592.03;;;21.78;49.58
62544;BME280;48597;49.030;1.822;2022-10-16T06:22:06;100599.91;;;21.79;49.57
62544;BME280;48597;49.030;1.822;2022-10-16T06:24:32;100600.72;;;21.80;49.65
62544;BME280;48597;49.030;1.822;2022-10-16T06:26:57;100607.09;;;21.79;49.67
62544;BME280;48597;49.030;1.822;2022-10-16T06:29:22;100600.91;;;21.78;49.40
62544;BME280;48597;49.030;1.822;2022-10-16T06:31:48;100599.25;;;21.77;49.47
62544;BME280;48597;49.030;1.822;2022-10-16T06:34:13;100601.06;;;21.77;49.69
62544;BME280;48597;49.030;1.822;2022-10-16T06:36:39;100603.91;;;21.75;49.74
62544;BME280;48597;49.030;1.822;2022-10-16T06:39:05;100603.09;;;21.75;49.91
62544;BME280;48597;49.030;1.822;2022-10-16T06:41:33;100588.03;;;21.74;50.29
62544;BME280;48597;49.030;1.822;2022-10-16T06:43:58;100593.53;;;21.72;50.50
62544;BME280;48597;49.030;1.822;2022-10-16T06:46:26;100611.63;;;21.70;50.87
62544;BME280;48597;49.030;1.822;2022-10-16T06:48:55;100626.69;;;21.71;50.62
62544;BME280;48597;49.030;1.822;2022-10-16T06:51:22;100632.38;;;21.68;51.08
62544;BME280;48597;49.030;1.822;2022-10-16T06:53:50;100636.75;;;21.69;51.43
62544;BME280;48597;49.030;1.822;2022-10-16T06:58:46;100643.06;;;21.68;52.09
62544;BME280;48597;49.030;1.822;2022-10-16T07:01:12;100654.81;;;21.67;51.86
62544;BME280;48597;49.030;1.822;2022-10-16T07:03:43;100646.78;;;21.67;51.95
62544;BME280;48597;49.030;1.822;2022-10-16T07:06:10;100648.75;;;21.65;51.92
62544;BME280;48597;49.030;1.822;2022-10-16T07:08:38;100655.13;;;21.64;51.90
62544;BME280;48597;49.030;1.822;2022-10-16T07:11:09;100653.47;;;21.63;52.10
62544;BME280;48597;49.030;1.822;2022-10-16T07:13:37;100650.97;;;21.62;51.67
62544;BME280;48597;49.030;1.822;2022-10-16T07:16:08;100659.97;;;21.61;51.70
62544;BME280;48597;49.030;1.822;2022-10-16T07:18:34;100667.34;;;21.59;52.02
62544;BME280;48597;49.030;1.822;2022-10-16T07:21:05;100667.34;;;21.59;51.71
62544;BME280;48597;49.030;1.822;2022-10-16T07:23:30;100669.84;;;21.60;51.77
62544;BME280;48597;49.030;1.822;2022-10-16T07:25:55;100668.19;;;21.59;51.38
62544;BME280;48597;49.030;1.822;2022-10-16T07:28:21;100666.53;;;21.58;51.55
62544;BME280;48597;49.030;1.822;2022-10-16T07:30:47;100656.97;;;21.55;52.01
62544;BME280;48597;49.030;1.822;2022-10-16T07:33:12;100672.19;;;21.55;51.90
62544;BME280;48597;49.030;1.822;2022-10-16T07:35:38;100663.47;;;21.53;51.66
62544;BME280;48597;49.030;1.822;2022-10-16T07:38:11;100662.66;;;21.52;51.91
62544;BME280;48597;49.030;1.822;2022-10-16T07:40:37;100675.88;;;21.54;51.50
62544;BME280;48597;49.030;1.822;2022-10-16T07:43:02;100693.94;;;21.52;51.75
62544;BME280;48597;49.030;1.822;2022-10-16T07:45:30;100696.78;;;21.50;51.98
62544;BME280;48597;49.030;1.822;2022-10-16T07:47:57;100694.25;;;21.49;52.11
62544;BME280;48597;49.030;1.822;2022-10-16T07:50:22;100694.44;;;21.47;51.86
62544;BME280;48597;49.030;1.822;2022-10-16T07:52:47;100692.59;;;21.48;51.94
62544;BME280;48597;49.030;1.822;2022-10-16T07:55:13;100690.94;;;21.47;52.25
62544;BME280;48597;49.030;1.822;2022-10-16T07:57:38;100693.94;;;21.44;52.32
62544;BME280;48597;49.030;1.822;2022-10-16T08:00:04;100690.56;;;21.42;52.41
62544;BME280;48597;49.030;1.822;2022-10-16T08:02:29;100695.91;;;21.42;52.38
62544;BME280;48597;49.030;1.822;2022-10-16T08:04:56;100685.19;;;21.42;52.39
62544;BME280;48597;49.030;1.822;2022-10-16T08:07:21;100671.81;;;21.42;52.24
62544;BME280;48597;49.030;1.822;2022-10-16T08:09:49;100673.66;;;21.41;52.31
62544;BME280;48597;49.030;1.822;2022-10-16T08:12:15;100670.97;;;21.41;52.05
62544;BME280;48597;49.030;1.822;2022-10-16T08:14:40;100675.19;;;21.44;51.83
62544;BME280;48597;49.030;1.822;2022-10-16T08:17:06;100677.16;;;21.42;52.16
62544;BME280;48597;49.030;1.822;2022-10-16T08:19:31;100673.16;;;21.38;52.00
62544;BME280;48597;49.030;1.822;2022-10-16T08:21:59;100678.84;;;21.35;52.32
62544;BME280;48597;49.030;1.822;2022-10-16T08:24:24;100694.09;;;21.34;52.37
62544;BME280;48597;49.030;1.822;2022-10-16T08:26:50;100694.09;;;21.34;52.08
62544;BME280;48597;49.030;1.822;2022-10-16T08:29:15;100693.22;;;21.33;52.11
62544;BME280;48597;49.030;1.822;2022-10-16T08:31:40;100707.75;;;21.31;52.42
62544;BME280;48597;49.030;1.822;2022-10-16T08:34:06;100711.13;;;21.33;52.21
62544;BME280;48597;49.030;1.822;2022-10-16T08:36:31;100714.31;;;21.37;52.18
62544;BME280;48597;49.030;1.822;2022-10-16T08:38:57;100724.88;;;21.38;52.12
62544;BME280;48597;49.030;1.822;2022-10-16T08:41:35;100713.31;;;21.38;52.22
62544;BME280;48597;49.030;1.822;2022-10-16T08:44:21;100701.09;;;21.35;52.34
62544;BME280;48597;49.030;1.822;2022-10-16T08:47:09;100711.81;;;21.35;52.08
62544;BME280;48597;49.030;1.822;2022-10-16T08:49:41;100721.00;;;21.32;52.09
62544;BME280;48597;49.030;1.822;2022-10-16T08:52:12;100715.78;;;21.31;52.05
62544;BME280;48597;49.030;1.822;2022-10-16T08:54:42;100708.91;;;21.28;52.28
62544;BME280;48597;49.030;1.822;2022-10-16T08:57:20;100714.25;;;21.28;52.15
62544;BME280;48597;49.030;1.822;2022-10-16T08:59:46;100719.59;;;21.28;52.24
62544;BME280;48597;49.030;1.822;2022-10-16T09:04:59;100733.00;;;21.28;52.23
62544;BME280;48597;49.030;1.822;2022-10-16T09:07:57;100738.50;;;21.27;52.44
62544;BME280;48597;49.030;1.822;2022-10-16T09:13:21;100746.69;;;21.25;52.19
62544;BME280;48597;49.030;1.822;2022-10-16T09:18:35;100736.81;;;21.26;52.36
62544;BME280;48597;49.030;1.822;2022-10-16T09:23:39;100725.28;;;21.25;52.41
62544;BME280;48597;49.030;1.822;2022-10-16T09:26:05;100734.00;;;21.27;52.30
62544;BME280;48597;49.030;1.822;2022-10-16T09:28:34;100717.94;;;21.27;52.20
62544;BME280;48597;49.030;1.822;2022-10-16T09:31:00;100723.28;;;21.27;52.56
62544;BME280;48597;49.030;1.822;2022-10-16T09:33:29;100720.63;;;21.27;52.35
62544;BME280;48597;49.030;1.822;2022-10-16T09:35:58;100731.97;;;21.29;52.40
62544;BME280;48597;49.030;1.822;2022-10-16T09:38:35;100739.34;;;21.27;52.20
62544;BME280;48597;49.030;1.822;2022-10-16T09:41:21;100752.56;;;21.29;52.36
62544;BME280;48597;49.030;1.822;2022-10-16T09:43:59;100745.53;;;21.28;52.29
62544;BME280;48597;49.030;1.822;2022-10-16T09:49:01;100733.00;;;21.28;52.44
62544;BME280;48597;49.030;1.822;2022-10-16T09:51:28;100741.84;;;21.29;52.46
62544;BME280;48597;49.030;1.822;2022-10-16T09:54:28;100746.38;;;21.28;52.22
62544;BME280;48597;49.030;1.822;2022-10-16T09:56:47;100745.38;;;21.29;52.28
62544;BME280;48597;49.030;1.822;2022-10-16T09:59:18;100734.00;;;21.27;52.42
62544;BME280;48597;49.030;1.822;2022-10-16T10:01:54;100743.88;;;21.27;52.36
62544;BME280;48597;49.030;1.822;2022-10-16T10:04:22;100750.06;;;21.27;52.38
62544;BME280;48597;49.030;1.822;2022-10-16T10:06:50;100741.19;;;21.27;52.39
62544;BME280;48597;49.030;1.822;2022-10-16T10:09:24;100728.66;;;21.27;52.36
62544;BME280;48597;49.030;1.822;2022-10-16T10:11:53;100734.13;;;21.26;52.55
62544;BME280;48597;49.030;1.822;2022-10-16T10:17:19;100726.97;;;21.26;52.42
62544;BME280;48597;49.030;1.822;2022-10-16T10:36:18;100681.63;;;21.25;52.37
62544;BME280;48597;49.030;1.822;2022-10-16T10:38:50;100674.59;;;21.24;52.47
62544;BME280;48597;49.030;1.822;2022-10-16T10:47:12;100673.78;;;21.23;52.56
62544;BME280;48597;49.030;1.822;2022-10-16T10:50:02;100680.78;;;21.24;52.11
62544;BME280;48597;49.030;1.822;2022-10-16T10:55:43;100686.13;;;21.24;52.30
62544;BME280;48597;49.030;1.822;2022-10-16T11:01:12;100691.19;;;21.27;52.49
62544;BME280;48597;49.030;1.822;2022-10-16T11:04:19;100696.53;;;21.27;52.47
62544;BME280;48597;49.030;1.822;2022-10-16T11:07:37;100702.72;;;21.28;52.52
62544;BME280;48597;49.030;1.822;2022-10-16T11:09:47;100701.88;;;21.27;52.41
62544;BME280;48597;49.030;1.822;2022-10-16T11:12:23;100707.22;;;21.27;52.42
62544;BME280;48597;49.030;1.822;2022-10-16T11:15:17;100704.56;;;21.27;52.58
62544;BME280;48597;49.030;1.822;2022-10-16T11:18:11;100693.69;;;21.29;52.51
62544;BME280;48597;49.030;1.822;2022-10-16T11:20:49;100713.41;;;21.28;52.37
62544;BME280;48597;49.030;1.822;2022-10-16T11:23:23;100708.75;;;21.30;52.28
62544;BME280;48597;49.030;1.822;2022-10-16T11:25:50;100696.53;;;21.27;52.43
62544;BME280;48597;49.030;1.822;2022-10-16T11:28:27;100683.97;;;21.28;52.25
62544;BME280;48597;49.030;1.822;2022-10-16T11:30:57;100679.47;;;21.28;52.23
62544;BME280;48597;49.030;1.822;2022-10-16T11:33:41;100683.97;;;21.28;52.36
62544;BME280;48597;49.030;1.822;2022-10-16T11:36:19;100676.63;;;21.30;52.30
62544;BME280;48597;49.030;1.822;2022-10-16T11:41:33;100666.78;;;21.30;52.42
62544;BME280;48597;49.030;1.822;2022-10-16T11:47:40;100657.91;;;21.30;52.33
62544;BME280;48597;49.030;1.822;2022-10-16T11:50:39;100664.09;;;21.30;52.20
62544;BME280;48597;49.030;1.822;2022-10-16T11:55:41;100656.91;;;21.31;52.33
62544;BME280;48597;49.030;1.822;2022-10-16T11:58:08;100653.38;;;21.30;52.20
62544;BME280;48597;49.030;1.822;2022-10-16T12:03:33;100659.56;;;21.31;52.12
62544;BME280;48597;49.030;1.822;2022-10-16T12:08:38;100654.06;;;21.32;52.33
62544;BME280;48597;49.030;1.822;2022-10-16T12:16:33;100654.06;;;21.32;52.33
62544;BME280;48597;49.030;1.822;2022-10-16T12:19:16;100650.53;;;21.32;52.19
62544;BME280;48597;49.030;1.822;2022-10-16T12:21:43;100655.75;;;21.33;52.15
62544;BME280;48597;49.030;1.822;2022-10-16T12:26:55;100647.72;;;21.33;52.22
62544;BME280;48597;49.030;1.822;2022-10-16T12:29:41;100636.16;;;21.33;52.28
62544;BME280;48597;49.030;1.822;2022-10-16T12:32:40;100642.34;;;21.33;52.12
62544;BME280;48597;49.030;1.822;2022-10-16T12:35:42;100631.66;;;21.33;52.11
62544;BME280;48597;49.030;1.822;2022-10-16T12:38:35;100623.63;;;21.33;52.03
62544;BME280;48597;49.030;1.822;2022-10-16T12:41:05;100628.16;;;21.33;52.04
62544;BME280;48597;49.030;1.822;2022-10-16T12:43:45;100630.00;;;21.32;52.10
62544;BME280;48597;49.030;1.822;2022-10-16T12:48:38;100615.59;;;21.33;52.19
62544;BME280;48597;49.030;1.822;2022-10-16T12:54:13;100614.63;;;21.35;52.08
62544;BME280;48597;49.030;1.822;2022-10-16T13:16:20;100607.94;;;21.39;52.64
62544;BME280;48597;49.030;1.822;2022-10-16T13:21:56;100599.53;;;21.42;52.41
62544;BME280;48597;49.030;1.822;2022-10-16T13:24:42;100596.53;;;21.45;52.29
62544;BME280;48597;49.030;1.822;2022-10-16T13:27:22;100597.03;;;21.48;52.31
62544;BME280;48597;49.030;1.822;2022-10-16T13:29:53;100595.88;;;21.51;52.03
62544;BME280;48597;49.030;1.822;2022-10-16T13:32:21;100595.88;;;21.51;52.04
62544;BME280;48597;49.030;1.822;2022-10-16T13:34:48;100606.28;;;21.54;52.31
62544;BME280;48597;49.030;1.822;2022-10-16T13:37:18;100601.44;;;21.58;52.23
62544;BME280;48597;49.030;1.822;2022-10-16T13:39:45;100609.28;;;21.59;52.27
62544;BME280;48597;49.030;1.822;2022-10-16T13:42:18;100614.44;;;21.61;52.07
62544;BME280;48597;49.030;1.822;2022-10-16T13:44:49;100620.50;;;21.63;52.20
62544;BME280;48597;49.030;1.822;2022-10-16T13:47:18;100607.63;;;21.66;52.11
62544;BME280;48597;49.030;1.822;2022-10-16T13:49:43;100611.13;;;21.67;52.14
62544;BME280;48597;49.030;1.822;2022-10-16T13:52:20;100608.25;;;21.68;51.91
62544;BME280;48597;49.030;1.822;2022-10-16T13:54:47;100608.94;;;21.70;51.92
62544;BME280;48597;49.030;1.822;2022-10-16T13:57:14;100616.81;;;21.72;52.11
62544;BME280;48597;49.030;1.822;2022-10-16T13:59:40;100613.13;;;21.73;51.87
62544;BME280;48597;49.030;1.822;2022-10-16T14:02:36;100604.25;;;21.72;52.02
62544;BME280;48597;49.030;1.822;2022-10-16T14:05:04;100598.75;;;21.74;51.88
62544;BME280;48597;49.030;1.822;2022-10-16T14:07:33;100607.59;;;21.74;51.96
62544;BME280;48597;49.030;1.822;2022-10-16T14:10:03;100600.06;;;21.78;51.77
62544;BME280;48597;49.030;1.822;2022-10-16T14:12:29;100598.22;;;21.78;51.80
62544;BME280;48597;49.030;1.822;2022-10-16T14:14:57;100594.53;;;21.79;51.93
62544;BME280;48597;49.030;1.822;2022-10-16T14:17:28;100589.00;;;21.81;51.82
62544;BME280;48597;49.030;1.822;2022-10-16T14:20:00;100592.38;;;21.83;51.66
62544;BME280;48597;49.030;1.822;2022-10-16T14:24:51;100594.72;;;21.86;51.69
62544;BME280;48597;49.030;1.822;2022-10-16T14:32:42;100592.53;;;21.90;51.54
62544;BME280;48597;49.030;1.822;2022-10-16T14:35:39;100591.34;;;21.92;51.25
62544;BME280;48597;49.030;1.822;2022-10-16T14:38:06;100595.72;;;21.93;51.48
62544;BME280;48597;49.030;1.822;2022-10-16T14:40:46;100600.22;;;21.93;51.36
62544;BME280;48597;49.030;1.822;2022-10-16T14:43:41;100603.56;;;21.95;51.18
62544;BME280;48597;49.030;1.822;2022-10-16T14:46:15;100599.88;;;21.96;51.34
62544;BME280;48597;49.030;1.822;2022-10-16T14:48:43;100604.25;;;21.97;51.16
62544;BME280;48597;49.030;1.822;2022-10-16T14:51:13;100597.06;;;21.97;51.26
62544;BME280;48597;49.030;1.822;2022-10-16T14:53:39;100608.59;;;21.98;51.16
62544;BME280;48597;49.030;1.822;2022-10-16T14:56:09;100604.06;;;21.98;51.06
62544;BME280;48597;49.030;1.822;2022-10-16T14:58:39;100595.84;;;22.00;51.09
62544;BME280;48597;49.030;1.822;2022-10-16T15:01:04;100595.84;;;22.00;51.17